createdAt,value
2023-06-14T00:02:59.864Z,52.21
2023-06-14T00:06:11.275Z,52.90
2023-06-14T00:09:18.308Z,52.56
2023-06-14T00:12:24.321Z,52.74
2023-06-14T00:15:36.912Z,53.15
2023-06-14T00:18:39.503Z,53.10
2023-06-14T00:21:45.067Z,53.33
2023-06-14T00:24:48.862Z,53.57
2023-06-14T00:28:01.225Z,53.63
2023-06-14T00:31:04.394Z,53.88
2023-06-14T00:34:16.513Z,54.17
2023-06-14T00:37:23.308Z,54.21
2023-06-14T00:40:27.640Z,54.51
2023-06-14T00:43:32.549Z,54.66
2023-06-14T00:46:35.093Z,54.52
2023-06-14T00:49:37.777Z,54.80
2023-06-14T00:52:43.608Z,55.00
2023-06-14T00:55:45.922Z,55.33
2023-06-14T00:58:55.752Z,55.67
2023-06-14T01:02:02.875Z,55.72
2023-06-14T01:05:07.952Z,55.60
2023-06-14T01:08:19.265Z,56.40
2023-06-14T01:11:28.429Z,56.43
2023-06-14T01:14:33.030Z,56.39
2023-06-14T01:17:40.420Z,56.52
2023-06-14T01:20:52.386Z,56.83
2023-06-14T01:24:06.041Z,56.82
2023-06-14T01:27:09.135Z,57.04
2023-06-14T01:30:18.545Z,57.31
2023-06-14T01:33:24.661Z,57.30
2023-06-14T01:36:27.958Z,57.47
2023-06-14T01:39:41.255Z,57.61
2023-06-14T01:42:45.835Z,57.84
2023-06-14T01:45:59.593Z,58.00
2023-06-14T01:49:05.826Z,57.96
2023-06-14T01:52:11.531Z,58.08
2023-06-14T01:55:19.142Z,57.97
2023-06-14T01:58:25.140Z,58.08
2023-06-14T02:01:29.218Z,58.13
2023-06-14T02:04:31.388Z,58.22
2023-06-14T02:07:34.567Z,58.58
2023-06-14T02:10:40.805Z,58.84
2023-06-14T02:13:43.241Z,58.79
2023-06-14T02:16:55.841Z,59.19
2023-06-14T02:19:58.381Z,59.14
2023-06-14T02:23:03.585Z,59.41
2023-06-14T02:26:11.230Z,59.46
2023-06-14T02:29:17.407Z,59.67
2023-06-14T02:32:19.621Z,59.84
2023-06-14T02:35:24.614Z,59.89
2023-06-14T02:38:29.396Z,60.26
2023-06-14T02:41:48.405Z,60.48
2023-06-14T02:44:53.089Z,60.63
2023-06-14T02:47:59.540Z,60.75
2023-06-14T02:51:01.541Z,61.15
2023-06-14T02:54:04.426Z,60.87
2023-06-14T02:57:12.853Z,61.51
2023-06-14T03:00:17.450Z,61.25
2023-06-14T03:03:25.753Z,61.15
2023-06-14T03:06:34.659Z,61.59
2023-06-14T03:09:39.663Z,61.85
2023-06-14T03:12:47.051Z,62.23
2023-06-14T03:15:58.636Z,62.17
2023-06-14T03:19:01.396Z,63.06
2023-06-14T03:22:08.703Z,63.48
2023-06-14T03:25:14.472Z,64.12
2023-06-14T03:28:19.004Z,64.04
2023-06-14T03:31:25.376Z,64.25
2023-06-14T03:34:31.322Z,64.57
2023-06-14T03:37:35.677Z,64.90
2023-06-14T03:40:37.973Z,65.38
2023-06-14T03:43:45.231Z,65.51
2023-06-14T03:46:47.941Z,65.19
2023-06-14T03:49:51.058Z,65.74
2023-06-14T03:52:55.961Z,66.04
2023-06-14T03:56:07.665Z,66.72
2023-06-14T03:59:19.040Z,67.07
2023-06-14T04:02:22.229Z,67.00
2023-06-14T04:05:35.826Z,67.41
2023-06-14T04:08:41.056Z,67.16
2023-06-14T04:11:49.834Z,67.69
2023-06-14T04:15:00.076Z,67.80
2023-06-14T04:18:11.440Z,68.01
2023-06-14T04:21:13.723Z,68.26
2023-06-14T04:24:27.126Z,68.35
2023-06-14T04:27:32.314Z,68.75
2023-06-14T04:30:39.747Z,68.58
2023-06-14T04:33:46.921Z,68.89
2023-06-14T04:36:57.418Z,69.22
2023-06-14T04:40:10.308Z,69.14
2023-06-14T04:43:21.035Z,69.31
2023-06-14T04:46:29.775Z,69.41
2023-06-14T04:49:34.039Z,69.38
2023-06-14T04:52:36.713Z,69.45
2023-06-14T04:55:41.367Z,69.63
2023-06-14T04:58:45.623Z,70.01
2023-06-14T05:01:49.695Z,69.73
2023-06-14T05:04:55.472Z,69.72
2023-06-14T05:08:02.804Z,70.05
2023-06-14T05:11:05.339Z,70.25
2023-06-14T05:14:07.914Z,69.97
2023-06-14T05:17:12.073Z,69.29
2023-06-14T05:20:30.472Z,70.13
2023-06-14T05:23:38.096Z,70.06
2023-06-14T05:26:40.376Z,69.84
2023-06-14T05:29:45.449Z,69.63
2023-06-14T05:32:54.102Z,69.58
2023-06-14T05:35:56.802Z,69.63
2023-06-14T05:39:02.770Z,69.22
2023-06-14T05:42:07.722Z,69.40
2023-06-14T05:45:13.107Z,69.19
2023-06-14T05:48:22.753Z,69.34
2023-06-14T05:51:29.133Z,69.55
2023-06-14T05:54:33.739Z,68.98
2023-06-14T05:57:35.851Z,69.51
2023-06-14T06:00:37.920Z,69.46
2023-06-14T06:03:41.632Z,69.40
2023-06-14T06:06:51.200Z,69.14
2023-06-14T06:09:55.337Z,69.25
2023-06-14T06:12:58.721Z,69.50
2023-06-14T06:16:05.569Z,69.04
2023-06-14T06:19:12.728Z,68.80
2023-06-14T06:22:14.996Z,68.59
2023-06-14T06:25:18.267Z,68.71
2023-06-14T06:28:21.506Z,67.75
2023-06-14T06:31:23.799Z,68.06
2023-06-14T06:34:34.943Z,68.00
2023-06-14T06:37:40.814Z,68.05
2023-06-14T06:40:42.897Z,68.57
2023-06-14T06:43:47.948Z,68.33
2023-06-14T06:46:53.295Z,68.01
2023-06-14T06:49:56.937Z,67.52
2023-06-14T06:52:59.165Z,67.90
2023-06-14T06:56:01.244Z,67.87
2023-06-14T06:59:05.900Z,67.64
2023-06-14T07:02:09.334Z,67.56
2023-06-14T07:05:17.057Z,67.33
2023-06-14T07:08:22.468Z,67.34
2023-06-14T07:11:24.767Z,66.86
2023-06-14T07:14:35.629Z,66.68
2023-06-14T07:17:38.428Z,66.43
2023-06-14T07:20:44.386Z,67.07
2023-06-14T07:23:46.879Z,67.08
2023-06-14T07:27:00.215Z,65.98
2023-06-14T07:30:02.393Z,66.19
2023-06-14T07:33:04.837Z,66.56
2023-06-14T07:36:13.088Z,67.39
2023-06-14T07:39:42.504Z,66.09
2023-06-14T07:42:45.027Z,65.36
2023-06-14T07:45:57.928Z,65.49
2023-06-14T07:49:08.689Z,64.63
2023-06-14T07:52:12.733Z,64.81
2023-06-14T07:55:17.649Z,64.79
2023-06-14T07:58:20.276Z,64.12
2023-06-14T08:01:22.979Z,63.88
2023-06-14T08:04:27.097Z,62.99
2023-06-14T08:07:34.008Z,63.95
2023-06-14T08:10:40.040Z,63.58
2023-06-14T08:13:42.254Z,64.05
2023-06-14T08:16:54.947Z,62.06
2023-06-14T08:19:58.418Z,62.23
2023-06-14T08:23:05.688Z,62.30
2023-06-14T08:26:08.926Z,63.12
2023-06-14T08:29:14.469Z,62.27
2023-06-14T08:32:20.379Z,61.23
2023-06-14T08:35:25.247Z,60.82
2023-06-14T08:38:29.644Z,61.23
2023-06-14T08:41:33.268Z,61.44
2023-06-14T08:44:50.654Z,61.17
2023-06-14T08:48:01.487Z,60.68
2023-06-14T08:51:05.755Z,59.20
2023-06-14T08:54:12.974Z,59.04
2023-06-14T08:57:18.248Z,58.82
2023-06-14T09:00:24.890Z,58.16
2023-06-14T09:03:31.019Z,58.22
2023-06-14T09:06:34.177Z,57.73
2023-06-14T09:09:45.596Z,57.33
2023-06-14T09:12:52.963Z,56.62
2023-06-14T09:15:55.453Z,57.61
2023-06-14T09:18:59.929Z,56.74
2023-06-14T09:22:06.972Z,56.72
2023-06-14T09:25:18.686Z,56.35
2023-06-14T09:28:30.973Z,56.98
2023-06-14T09:31:35.924Z,56.22
2023-06-14T09:34:38.611Z,56.76
2023-06-14T09:37:40.815Z,56.08
2023-06-14T09:40:44.771Z,56.66
2023-06-14T09:43:51.463Z,56.21
2023-06-14T09:46:56.868Z,55.84
2023-06-14T09:50:00.334Z,54.92
2023-06-14T09:53:06.812Z,55.39
2023-06-14T09:56:11.541Z,55.84
2023-06-14T09:59:14.141Z,55.91
2023-06-14T10:02:22.888Z,55.91
2023-06-14T10:05:29.206Z,54.62
2023-06-14T10:08:36.033Z,54.52
2023-06-14T10:11:45.217Z,54.01
2023-06-14T10:14:57.090Z,53.45
2023-06-14T10:18:09.030Z,53.07
2023-06-14T10:21:15.024Z,53.32
2023-06-14T10:24:19.492Z,53.46
2023-06-14T10:27:26.038Z,54.56
2023-06-14T10:30:28.408Z,52.60
2023-06-14T10:33:30.824Z,52.02
2023-06-14T10:36:36.188Z,51.81
2023-06-14T10:39:43.126Z,51.82
2023-06-14T10:42:55.125Z,51.38
2023-06-14T10:46:17.211Z,53.64
2023-06-14T10:49:22.469Z,51.79
2023-06-14T10:52:25.922Z,50.48
2023-06-14T10:55:37.276Z,50.81
2023-06-14T10:58:44.418Z,51.13
2023-06-14T11:01:58.563Z,50.43
2023-06-14T11:05:06.317Z,49.36
2023-06-14T11:08:26.705Z,50.22
2023-06-14T11:11:33.886Z,50.04
2023-06-14T11:14:42.617Z,49.91
2023-06-14T11:17:52.244Z,50.43
2023-06-14T11:20:54.640Z,51.36
2023-06-14T11:24:00.061Z,49.45
2023-06-14T11:27:02.085Z,50.07
2023-06-14T11:30:08.556Z,49.76
2023-06-14T11:33:19.657Z,48.17
2023-06-14T11:36:21.939Z,48.94
2023-06-14T11:39:26.021Z,49.35
2023-06-14T11:42:29.496Z,47.49
2023-06-14T11:45:33.709Z,49.86
2023-06-14T11:48:39.024Z,48.66
2023-06-14T11:51:44.274Z,48.02
2023-06-14T11:54:48.811Z,48.57
2023-06-14T11:57:51.186Z,47.77
2023-06-14T12:00:57.631Z,47.76
2023-06-14T12:04:02.269Z,47.81
2023-06-14T12:07:16.947Z,47.15
2023-06-14T12:10:21.047Z,47.77
2023-06-14T12:13:24.171Z,48.20
2023-06-14T12:16:34.414Z,49.92
2023-06-14T12:19:44.972Z,49.33
2023-06-14T12:22:53.118Z,49.09
2023-06-14T12:25:55.550Z,48.13
2023-06-14T12:28:58.056Z,47.57
2023-06-14T12:32:01.730Z,48.03
2023-06-14T12:35:04.209Z,47.83
2023-06-14T12:38:06.340Z,47.86
2023-06-14T12:41:08.866Z,46.98
2023-06-14T12:44:11.964Z,46.26
2023-06-14T12:47:15.754Z,45.66
2023-06-14T12:50:18.555Z,45.80
2023-06-14T12:53:21.300Z,45.67
2023-06-14T12:56:25.314Z,45.92
2023-06-14T12:59:34.192Z,46.17
2023-06-14T13:02:37.604Z,46.27
2023-06-14T13:05:43.823Z,47.70
2023-06-14T13:08:45.771Z,46.96
2023-06-14T13:11:48.454Z,47.93
2023-06-14T13:14:50.732Z,44.62
2023-06-14T13:17:55.203Z,46.74
2023-06-14T13:20:59.262Z,47.63
2023-06-14T13:24:01.869Z,47.03
2023-06-14T13:27:04.546Z,45.77
2023-06-14T13:30:07.680Z,46.24
2023-06-14T13:33:17.045Z,46.90
2023-06-14T13:36:19.204Z,47.61
2023-06-14T13:39:21.216Z,49.20
2023-06-14T13:42:23.637Z,49.41
2023-06-14T13:45:26.978Z,48.43
2023-06-14T13:48:31.513Z,48.72
2023-06-14T13:51:36.122Z,48.26
2023-06-14T13:54:38.304Z,48.61
2023-06-14T13:57:40.568Z,47.51
2023-06-14T14:00:42.593Z,46.76
2023-06-14T14:03:46.547Z,46.84
2023-06-14T14:06:51.315Z,46.73
2023-06-14T14:09:54.709Z,48.13
2023-06-14T14:12:57.894Z,48.58
2023-06-14T14:16:00.351Z,48.94
2023-06-14T14:19:04.393Z,49.05
2023-06-14T14:22:06.904Z,49.74
2023-06-14T14:25:11.763Z,50.18
2023-06-14T14:28:17.330Z,50.79
2023-06-14T14:31:21.972Z,50.07
2023-06-14T14:34:26.059Z,50.56
2023-06-14T14:37:30.543Z,49.24
2023-06-14T14:40:32.860Z,47.82
2023-06-14T14:43:35.346Z,48.64
2023-06-14T14:46:40.303Z,47.79
2023-06-14T14:49:43.900Z,47.38
2023-06-14T14:52:50.167Z,48.71
2023-06-14T14:55:56.425Z,47.92
2023-06-14T14:59:00.807Z,47.42
2023-06-14T15:02:06.659Z,47.51
2023-06-14T15:05:10.333Z,47.73
2023-06-14T15:08:13.395Z,48.12
2023-06-14T15:11:15.631Z,49.17
2023-06-14T15:14:23.076Z,49.25
2023-06-14T15:17:27.744Z,49.64
2023-06-14T15:20:33.760Z,48.53
2023-06-14T15:23:39.960Z,48.52
2023-06-14T15:26:45.286Z,48.08
2023-06-14T15:29:52.401Z,48.97
2023-06-14T15:32:57.029Z,48.04
2023-06-14T15:36:05.008Z,46.72
2023-06-14T15:39:08.788Z,46.79
2023-06-14T15:42:11.565Z,46.83
2023-06-14T15:45:28.046Z,46.49
2023-06-14T15:48:32.713Z,47.13
2023-06-14T15:51:46.140Z,46.48
2023-06-14T15:54:51.993Z,46.70
2023-06-14T15:57:57.370Z,46.98
2023-06-14T16:01:02.640Z,47.64
2023-06-14T16:04:08.160Z,46.73
2023-06-14T16:07:22.232Z,48.31
2023-06-14T16:10:29.347Z,48.11
2023-06-14T16:13:36.014Z,48.61
2023-06-14T16:16:38.618Z,48.61
2023-06-14T16:19:48.463Z,48.74
2023-06-14T16:22:54.865Z,48.42
2023-06-14T16:26:01.006Z,49.05
2023-06-14T16:29:05.225Z,49.66
2023-06-14T16:32:12.119Z,49.33
2023-06-14T16:35:23.722Z,49.51
2023-06-14T16:38:27.994Z,49.49
2023-06-14T16:41:34.810Z,49.70
2023-06-14T16:44:46.190Z,49.25
2023-06-14T16:47:48.422Z,49.72
2023-06-14T16:50:53.129Z,48.67
2023-06-14T16:53:59.575Z,49.39
2023-06-14T16:57:09.848Z,49.52
2023-06-14T17:00:15.284Z,49.86
2023-06-14T17:03:21.298Z,49.78
2023-06-14T17:06:23.591Z,50.73
2023-06-14T17:09:37.812Z,49.82
2023-06-14T17:12:47.823Z,50.17
2023-06-14T17:15:56.160Z,50.53
2023-06-14T17:19:06.424Z,51.18
2023-06-14T17:22:15.289Z,50.43
2023-06-14T17:25:19.107Z,50.58
2023-06-14T17:28:23.732Z,51.84
2023-06-14T17:31:35.308Z,50.57
2023-06-14T17:34:47.422Z,50.93
2023-06-14T17:37:51.342Z,50.28
2023-06-14T17:40:56.905Z,50.63
2023-06-14T17:44:01.786Z,50.89
2023-06-14T17:47:09.917Z,50.55
2023-06-14T17:50:19.115Z,50.97
2023-06-14T17:53:24.477Z,50.41
2023-06-14T17:56:30.967Z,51.73
2023-06-14T17:59:38.265Z,51.20
2023-06-14T18:02:46.852Z,51.03
2023-06-14T18:05:52.258Z,51.08
2023-06-14T18:08:58.705Z,51.56
2023-06-14T18:12:05.681Z,51.31
2023-06-14T18:15:13.422Z,52.30
2023-06-14T18:18:16.185Z,51.91
2023-06-14T18:21:23.554Z,52.01
2023-06-14T18:24:30.055Z,52.08
2023-06-14T18:27:36.689Z,53.08
2023-06-14T18:30:40.807Z,53.75
2023-06-14T18:33:45.124Z,54.60
2023-06-14T18:36:49.673Z,54.91
2023-06-14T18:39:56.780Z,54.35
2023-06-14T18:43:00.835Z,53.72
2023-06-14T18:46:09.141Z,54.09
2023-06-14T18:49:14.795Z,55.08
2023-06-14T18:52:19.941Z,55.69
2023-06-14T18:55:24.396Z,54.79
2023-06-14T18:58:31.414Z,55.22
2023-06-14T19:01:36.225Z,55.19
2023-06-14T19:04:40.584Z,55.73
2023-06-14T19:07:45.381Z,55.03
2023-06-14T19:10:47.410Z,56.07
2023-06-14T19:13:56.551Z,56.79
2023-06-14T19:17:01.431Z,57.32
2023-06-14T19:20:11.900Z,57.69
2023-06-14T19:23:33.979Z,58.54
2023-06-14T19:26:46.614Z,58.46
2023-06-14T19:30:03.584Z,58.85
2023-06-14T19:33:09.791Z,60.01
2023-06-14T19:36:16.236Z,58.39
2023-06-14T19:39:27.184Z,58.24
2023-06-14T19:42:31.746Z,58.42
2023-06-14T19:45:47.976Z,58.39
2023-06-14T19:48:57.013Z,58.09
2023-06-14T19:52:07.981Z,58.53
2023-06-14T19:55:30.645Z,59.12
2023-06-14T19:58:35.378Z,59.12
2023-06-14T20:02:00.410Z,59.67
2023-06-14T20:05:10.451Z,58.71
2023-06-14T20:08:24.926Z,58.73
2023-06-14T20:11:29.508Z,59.30
2023-06-14T20:14:37.810Z,60.15
2023-06-14T20:17:45.920Z,59.86
2023-06-14T20:20:53.622Z,59.99
2023-06-14T20:24:05.196Z,60.71
2023-06-14T20:27:12.733Z,60.70
2023-06-14T20:30:17.502Z,60.61
2023-06-14T20:33:23.571Z,60.83
2023-06-14T20:36:32.655Z,61.26
2023-06-14T20:39:40.272Z,61.75
2023-06-14T20:42:45.061Z,61.62
2023-06-14T20:45:50.501Z,62.04
2023-06-14T20:48:58.599Z,62.35
2023-06-14T20:52:06.240Z,62.91
2023-06-14T20:55:09.665Z,62.64
2023-06-14T20:58:12.680Z,62.84
2023-06-14T21:01:19.560Z,63.38
2023-06-14T21:04:33.197Z,63.34
2023-06-14T21:07:38.747Z,62.34
2023-06-14T21:10:46.104Z,61.84
2023-06-14T21:13:50.473Z,60.92
2023-06-14T21:17:13.820Z,60.01
2023-06-14T21:20:24.191Z,60.13
2023-06-14T21:23:31.963Z,59.93
2023-06-14T21:26:45.082Z,59.92
2023-06-14T21:29:58.855Z,59.68
2023-06-14T21:33:12.364Z,59.73
2023-06-14T21:36:15.951Z,59.74
2023-06-14T21:39:19.654Z,59.85
2023-06-14T21:42:28.936Z,59.67
2023-06-14T21:45:33.472Z,59.97
2023-06-14T21:48:38.328Z,60.37
2023-06-14T21:51:45.492Z,60.37
2023-06-14T21:54:59.255Z,60.15
2023-06-14T21:58:05.253Z,60.08
2023-06-14T22:01:07.605Z,60.13
2023-06-14T22:04:10.079Z,60.18
2023-06-14T22:07:17.203Z,61.18
2023-06-14T22:10:23.419Z,62.44
2023-06-14T22:13:32.008Z,63.02
2023-06-14T22:16:45.638Z,62.69
2023-06-14T22:19:58.688Z,62.75
2023-06-14T22:23:06.539Z,62.71
2023-06-14T22:26:10.624Z,62.74
2023-06-14T22:29:13.022Z,62.78
2023-06-14T22:32:16.051Z,62.54
2023-06-14T22:35:21.445Z,62.38
2023-06-14T22:38:31.975Z,62.57
2023-06-14T22:41:39.130Z,62.43
2023-06-14T22:44:53.177Z,62.69
2023-06-14T22:47:59.293Z,63.22
2023-06-14T22:51:01.466Z,63.21
2023-06-14T22:54:21.848Z,63.39
2023-06-14T22:57:33.570Z,63.58
2023-06-14T23:00:47.542Z,63.20
2023-06-14T23:03:54.597Z,63.10
2023-06-14T23:07:04.098Z,62.03
2023-06-14T23:10:09.013Z,62.35
2023-06-14T23:13:17.036Z,62.06
2023-06-14T23:16:20.707Z,61.83
2023-06-14T23:19:28.498Z,61.62
2023-06-14T23:22:36.578Z,61.29
2023-06-14T23:25:50.609Z,61.30
2023-06-14T23:28:58.241Z,61.35
2023-06-14T23:32:03.599Z,61.81
2023-06-14T23:35:15.360Z,61.35
2023-06-14T23:38:28.946Z,61.25
2023-06-14T23:41:34.517Z,61.13
2023-06-14T23:44:43.087Z,61.26
2023-06-14T23:48:10.589Z,61.46
2023-06-14T23:51:17.947Z,61.98
2023-06-14T23:54:27.338Z,62.51
2023-06-14T23:57:36.088Z,62.95
